SCIE/CCP METAR and TAF weather

Enter ICAO airport designator
Station Type Date Time Source
SCIE METAR 2019/08/17 11:00 UTC NOAA

SCIE 171100Z 32008KT 300V360 9999 BKN030 BKN040 12/10 Q1016 RESHRA


Station Type Date Time Source
SCIE Decoded METAR 2019/08/17 11:00 UTC NOAA

Station name not available
Aug 17, 2019 - 07:00 AM EDT / 2019.08.17 1100 UTC
Wind: from the NW (320 degrees) at 9 MPH (8 KT) (direction variable):0
Visibility: greater than 7 mile(s):0
Sky conditions: mostly cloudy
Temperature: 53 F (12 C)
Dew Point: 50 F (10 C)
Relative Humidity: 87%
Pressure (altimeter): 30.00 in. Hg (1016 hPa)
ob: SCIE 171100Z 32008KT 300V360 9999 BKN030 BKN040 12/10 Q1016 RESHRA
cycle: 11

Station Type Date Time Source
SCIE TAF 2019/08/17 12:04 UTC NOAA

TAF SCIE 171015Z 1712/1812 34008KT 9999 SCT020 BKN030 TX13/1718Z TN06/1811Z
TEMPO 1712/1718 7000 -SHRA SCT007 BKN012 OVC025
BECMG 1718/1720 9999 NSW SCT025 BKN040
BECMG 1722/1800 30010KT SCT030
BECMG 1801/1803 01004KT CAVOK
TEMPO 1806/1812 12004KT 4000 BR NSC

Example: see airport list